AirNav   Pilot Hours Calculator
 
 1274 users online  

NH09 Seabrook Station Heliport
Seabrook, New Hampshire, USA

GOING TO SEABROOK?


FAA INFORMATION EFFECTIVE 02 JANUARY 2020

Location

FAA Identifier: NH09
Lat/Long: 42-53-45.3240N 070-51-40.1920W
42-53.755400N 070-51.669867W
42.8959233,-70.8611644
(estimated)
Elevation: 41 ft. / 12.5 m (surveyed)
Variation: 16W (1985)
Time zone: UTC -5 (UTC -4 during Daylight Saving Time)
Zip code: 03874

Heliport Operations

Heliport use: Private use. Permission required prior to landing
Activation date: 05/1988
Control tower: no
ARTCC: BOSTON CENTER
FSS: BANGOR FLIGHT SERVICE STATION
Attendance: UNATNDD
Wind indicator: yes
Segmented circle: no
Lights: FOR PERIMETER LGTS CALL 603-474-9521, EXTN 3033.

Heliport Communications

WX ASOS at LWM (16 nm SW): PHONE 978-687-8017
WX ASOS at BVY (19 nm S): PHONE 978-921-5042

Nearby radio navigation aids

VOR radial/distance  VOR name  Freq  Var
PSMr202/11.4PEASE VOR/DME116.5016W
LWMr063/13.9LAWRENCE VOR/DME112.5015W
MHTr101/22.4MANCHESTER VOR/DME114.4015W
BOSr026/32.8BOSTON VOR/DME112.7016W
ENEr216/33.6KENNEBUNK VOR/DME117.1017W
CONr137/36.9CONCORD VOR/DME112.9015W

 
NDB name  Hdg/Dist  Freq  Var  ID
ROLLINS200/19.526016WESG . ... --.

Heliport Services

Runway Information

Helipad H1

Dimensions: 40 x 40 ft. / 12 x 12 m
Surface: concrete
Runway edge lights: PERI
Latitude: 42-53.755400N
Longitude: 070-51.669867W
Elevation: 41.0 ft.
Traffic pattern: leftleft

Heliport Ownership and Management from official FAA records

Ownership: Privately-owned
Owner: N ATLANTIC ENERGY SER CORP
BOX 300
SEABROOK, NH 03874
Phone 603-474-9521
Manager: ROBERT BADGER
BOX 300
SEABROOK, NH 03874
Phone 603-474-9521

Additional Remarks

FOR CD CTC BOSTON APCH AT 603-594-5551.

Instrument Procedures

There are no published instrument procedures at NH09.

Some nearby airports with instrument procedures:

KPSM - Portsmouth International Airport at Pease (11 nm N)
3B4 - Littlebrook Air Park (15 nm N)
KLWM - Lawrence Municipal Airport (16 nm SW)
KBVY - Beverly Regional Airport (19 nm S)
KDAW - Skyhaven Airport (23 nm N)
 
Loc | Ops | Rwys | IFR | FBO | Links
Com | Nav | Svcs | Stats | Notes
Area around NH09 (Seabrook Station Heliport)
 
Road maps at: MapQuest Bing Google
 
Aerial photo
No photo
 
Sectional chart

 
Airport distance calculator
Flying to Seabrook Station Heliport? Find the distance to fly.

From to NH09

Sunrise and sunset
Times for 26-Jan-2020
 Local
(UTC-5)
 Zulu
(UTC)
Morning civil twilight06:3511:35
Sunrise07:0512:05
Sunset16:4721:47
Evening civil twilight17:1722:17

Current date and time
Zulu (UTC)  26-Jan-2020 23:50:04
Local (UTC-5)  26-Jan-2020 18:50:04
 
METAR
KPSM 
10nm N 
262256Z 25009KT 10SM FEW055 04/M04 A2962 RMK AO2A SLP034 T00421043
KLWM 
16nm SW 
262254Z 25008KT 10SM BKN055 04/M03 A2968 RMK AO2 SLP050 T00441033 $
KBVY 
19nm S 
262253Z 26008KT 10SM CLR 04/M03 A2966 RMK AO2 SLP040 T00441033 $
TAF
KPSM 
10nm N 
261720Z 2618/2718 27010KT P6SM BKN025 FM261830 27010KT P6SM SCT030 FM270000 25006KT P6SM BKN100
NOTAMs
Click for the latest NOTAMs
NOTAMs are issued by the DoD/FAA and will open in a separate window not controlled by AirNav.

 

 
 

Would you like to see your business listed on this page?

 If your business provides an interesting product or service to pilots, flight crews, aircraft, or users of the Seabrook Station Heliport, you should consider listing it here.  To start the listing process, click on the button below
 
Add a business
 

Other Pages about Seabrook Station Heliport

Update a link
 
Copyright © AirNav, LLC. All rights reserved. Privacy Policy  Contact